createdAt,value
2018-01-18T00:00:29.660Z,97827.23
2018-01-18T00:02:58.007Z,97827.12
2018-01-18T00:05:26.311Z,97823.82
2018-01-18T00:07:54.619Z,97829.16
2018-01-18T00:10:24.207Z,97823.94
2018-01-18T00:12:52.583Z,97819.63
2018-01-18T00:15:20.883Z,97821.00
2018-01-18T00:17:49.807Z,97810.69
2018-01-18T00:20:18.114Z,97809.67
2018-01-18T00:22:46.462Z,97813.05
2018-01-18T00:25:14.809Z,97811.31
2018-01-18T00:27:43.884Z,97809.16
2018-01-18T00:30:12.212Z,97811.98
2018-01-18T00:32:41.975Z,97812.13
2018-01-18T00:35:10.288Z,97812.16
2018-01-18T00:37:38.599Z,97807.36
2018-01-18T00:40:06.947Z,97797.98
2018-01-18T00:42:35.254Z,97804.16
2018-01-18T00:45:03.557Z,97793.31
2018-01-18T00:47:32.212Z,97798.16
2018-01-18T00:50:00.828Z,97790.34
2018-01-18T00:52:29.127Z,97793.25
2018-01-18T00:54:57.481Z,97788.00
2018-01-18T00:57:25.792Z,97782.59
2018-01-18T00:59:54.104Z,97792.27
2018-01-18T01:02:23.449Z,97800.30
2018-01-18T01:04:52.519Z,97798.94
2018-01-18T01:07:21.593Z,97805.06
2018-01-18T01:09:50.257Z,97801.09
2018-01-18T01:12:18.560Z,97797.71
2018-01-18T01:14:46.862Z,97796.98
2018-01-18T01:17:15.863Z,97795.86
2018-01-18T01:19:44.162Z,97795.56
2018-01-18T01:22:12.475Z,97796.50
2018-01-18T01:24:40.834Z,97795.77
2018-01-18T01:27:09.135Z,97795.47
2018-01-18T01:29:37.435Z,97797.67
2018-01-18T01:32:05.887Z,97801.73
2018-01-18T01:34:34.200Z,97806.08
2018-01-18T01:37:02.512Z,97801.77
2018-01-18T01:39:30.835Z,97807.76
2018-01-18T01:41:59.152Z,97789.08
2018-01-18T01:44:28.265Z,97780.76
2018-01-18T01:46:56.575Z,97786.19
2018-01-18T01:49:24.883Z,97776.92
2018-01-18T01:51:53.546Z,97770.03
2018-01-18T01:54:22.572Z,97768.42
2018-01-18T01:56:51.645Z,97759.95
2018-01-18T01:59:19.987Z,97757.91
2018-01-18T02:01:48.296Z,97756.17
2018-01-18T02:04:16.602Z,97740.83
2018-01-18T02:06:44.947Z,97726.00
2018-01-18T02:09:13.256Z,97735.38
2018-01-18T02:11:42.331Z,97734.69
2018-01-18T02:14:10.688Z,97723.00
2018-01-18T02:16:39.000Z,97723.59
2018-01-18T02:19:07.307Z,97727.63
2018-01-18T02:21:35.766Z,97725.53
2018-01-18T02:24:04.093Z,97728.52
2018-01-18T02:26:32.399Z,97713.08
2018-01-18T02:29:00.985Z,97710.75
2018-01-18T02:31:29.443Z,97715.55
2018-01-18T02:33:57.907Z,97705.78
2018-01-18T02:36:26.519Z,97702.35
2018-01-18T02:38:54.828Z,97695.73
2018-01-18T02:41:23.904Z,97696.44
2018-01-18T02:43:52.279Z,97683.09
2018-01-18T02:46:20.605Z,97679.24
2018-01-18T02:48:49.608Z,97676.52
2018-01-18T02:51:17.945Z,97674.01
2018-01-18T02:53:46.256Z,97670.63
2018-01-18T02:56:14.558Z,97659.14
2018-01-18T02:58:42.915Z,97658.18
2018-01-18T03:01:11.241Z,97656.32
2018-01-18T03:03:40.032Z,97644.25
2018-01-18T03:06:08.387Z,97654.70
2018-01-18T03:08:37.296Z,97663.45
2018-01-18T03:11:05.851Z,97651.45
2018-01-18T03:13:34.914Z,97650.25
2018-01-18T03:16:03.547Z,97644.76
2018-01-18T03:18:32.664Z,97639.91
2018-01-18T03:21:01.856Z,97642.47
2018-01-18T03:23:30.335Z,97633.80
2018-01-18T03:25:58.644Z,97632.08
2018-01-18T03:28:27.850Z,97625.10
2018-01-18T03:30:57.535Z,97638.45
2018-01-18T03:33:25.844Z,97638.13
2018-01-18T03:35:54.768Z,97625.08
2018-01-18T03:38:23.084Z,97621.93
2018-01-18T03:40:52.011Z,97610.61
2018-01-18T03:43:20.603Z,97601.69
2018-01-18T03:45:48.900Z,97594.88
2018-01-18T03:48:17.220Z,97585.73
2018-01-18T03:50:45.567Z,97584.70
2018-01-18T03:53:13.863Z,97578.92
2018-01-18T03:55:42.855Z,97573.94
2018-01-18T03:58:11.307Z,97560.20
2018-01-18T04:00:39.624Z,97560.12
2018-01-18T04:03:08.697Z,97554.05
2018-01-18T04:05:37.313Z,97558.99
2018-01-18T04:08:05.634Z,97555.22
2018-01-18T04:10:33.936Z,97540.73
2018-01-18T04:13:02.311Z,97530.64
2018-01-18T04:15:30.628Z,97521.78
2018-01-18T04:17:58.931Z,97514.25
2018-01-18T04:20:27.747Z,97511.52
2018-01-18T04:22:56.240Z,97503.50
2018-01-18T04:25:24.542Z,97493.83
2018-01-18T04:27:52.854Z,97489.38
2018-01-18T04:30:21.254Z,97484.80
2018-01-18T04:32:49.556Z,97478.48
2018-01-18T04:35:17.851Z,97467.42
2018-01-18T04:37:46.199Z,97469.97
2018-01-18T04:40:14.686Z,97471.28
2018-01-18T04:42:43.783Z,97468.70
2018-01-18T04:45:12.123Z,97461.78
2018-01-18T04:47:40.428Z,97448.90
2018-01-18T04:50:08.739Z,97432.52
2018-01-18T04:52:37.074Z,97424.02
2018-01-18T04:55:05.379Z,97412.53
2018-01-18T04:57:33.988Z,97400.27
2018-01-18T05:00:03.373Z,97392.16
2018-01-18T05:02:31.684Z,97383.36
2018-01-18T05:04:59.988Z,97368.04
2018-01-18T05:07:28.345Z,97377.16
2018-01-18T05:09:56.652Z,97371.51
2018-01-18T05:12:24.947Z,97368.44
2018-01-18T05:14:53.414Z,97356.97
2018-01-18T05:17:21.716Z,97344.80
2018-01-18T05:19:50.021Z,97339.06
2018-01-18T05:22:18.359Z,97331.81
2018-01-18T05:24:46.671Z,97314.91
2018-01-18T05:27:14.976Z,97303.58
2018-01-18T05:29:43.964Z,97292.92
2018-01-18T05:32:12.338Z,97295.33
2018-01-18T05:34:40.639Z,97291.88
2018-01-18T05:37:08.975Z,97286.78
2018-01-18T05:39:38.046Z,97281.99
2018-01-18T05:42:06.338Z,97271.94
2018-01-18T05:44:34.970Z,97261.08
2018-01-18T05:47:03.267Z,97252.13
2018-01-18T05:49:31.575Z,97250.88
2018-01-18T05:51:59.915Z,97229.16
2018-01-18T05:54:28.263Z,97237.66
2018-01-18T05:56:56.927Z,97220.11
2018-01-18T05:59:25.595Z,97220.50
2018-01-18T06:01:54.001Z,97207.56
2018-01-18T06:04:22.464Z,97192.92
2018-01-18T06:06:51.536Z,97186.61
2018-01-18T06:09:19.875Z,97188.73
2018-01-18T06:11:48.327Z,97176.10
2018-01-18T06:14:16.633Z,97159.18
2018-01-18T06:16:44.951Z,97155.56
2018-01-18T06:19:13.303Z,97141.25
2018-01-18T06:21:41.604Z,97140.62
2018-01-18T06:24:09.915Z,97135.80
2018-01-18T06:26:38.300Z,97134.69
2018-01-18T06:29:06.795Z,97133.58
2018-01-18T06:31:35.116Z,97123.48
2018-01-18T06:34:03.432Z,97122.28
2018-01-18T06:36:32.543Z,97107.52
2018-01-18T06:39:00.848Z,97119.92
2018-01-18T06:41:29.142Z,97109.85
2018-01-18T06:43:57.647Z,97106.02
2018-01-18T06:46:25.976Z,97101.52
2018-01-18T06:48:54.444Z,97099.48
2018-01-18T06:51:23.396Z,97085.95
2018-01-18T06:53:52.458Z,97085.55
2018-01-18T06:56:21.024Z,97084.59
2018-01-18T06:58:49.334Z,97082.02
2018-01-18T07:01:17.774Z,97074.61
2018-01-18T07:03:47.437Z,97072.54
2018-01-18T07:06:15.744Z,97063.53
2018-01-18T07:08:44.487Z,97066.62
2018-01-18T07:11:12.803Z,97067.50
2018-01-18T07:13:41.116Z,97059.52
2018-01-18T07:16:09.700Z,97067.11
2018-01-18T07:18:38.020Z,97061.78
2018-01-18T07:21:06.320Z,97068.41
2018-01-18T07:23:35.188Z,97054.42
2018-01-18T07:26:03.563Z,97047.31
2018-01-18T07:28:31.867Z,97039.72
2018-01-18T07:31:00.363Z,97041.23
2018-01-18T07:33:28.666Z,97043.44
2018-01-18T07:35:56.972Z,97043.40
2018-01-18T07:38:25.324Z,97027.72
2018-01-18T07:40:53.619Z,97035.27
2018-01-18T07:43:21.919Z,97028.88
2018-01-18T07:45:50.275Z,97047.55
2018-01-18T07:48:18.592Z,97037.69
2018-01-18T07:50:47.159Z,97019.89
2018-01-18T07:53:16.291Z,97027.22
2018-01-18T07:55:44.752Z,97024.69
2018-01-18T07:58:13.653Z,97031.61
2018-01-18T08:00:41.951Z,97034.63
2018-01-18T08:03:15.760Z,97036.95
2018-01-18T08:05:44.100Z,97031.53
2018-01-18T08:08:12.384Z,97052.25
2018-01-18T08:10:41.268Z,97034.52
2018-01-18T08:13:09.892Z,97047.16
2018-01-18T08:15:38.199Z,97044.30
2018-01-18T08:18:06.802Z,97047.09
2018-01-18T08:20:36.183Z,97047.05
2018-01-18T08:23:04.519Z,97047.36
2018-01-18T08:25:32.863Z,97039.02
2018-01-18T08:28:01.171Z,97039.22
2018-01-18T08:30:29.471Z,97048.70
2018-01-18T08:32:58.286Z,97043.69
2018-01-18T08:35:26.589Z,97049.95
2018-01-18T08:37:54.891Z,97041.35
2018-01-18T08:40:23.424Z,97053.30
2018-01-18T08:42:51.732Z,97060.63
2018-01-18T08:45:20.707Z,97069.88
2018-01-18T08:47:49.147Z,97070.25
2018-01-18T08:50:17.458Z,97086.13
2018-01-18T08:52:45.764Z,97090.02
2018-01-18T08:55:14.887Z,97091.25
2018-01-18T08:57:45.458Z,97087.38
2018-01-18T09:00:13.792Z,97073.52
2018-01-18T09:02:42.098Z,97078.80
2018-01-18T09:05:10.724Z,97082.56
2018-01-18T09:07:39.079Z,97094.50
2018-01-18T09:10:07.384Z,97093.61
2018-01-18T09:12:36.556Z,97081.84
2018-01-18T09:15:04.863Z,97060.83
2018-01-18T09:17:33.203Z,97056.56
2018-01-18T09:20:01.725Z,97038.09
2018-01-18T09:22:30.788Z,97046.02
2018-01-18T09:24:59.464Z,97043.19
2018-01-18T09:27:27.763Z,97026.60
2018-01-18T09:29:56.293Z,97024.23
2018-01-18T09:32:25.251Z,97016.78
2018-01-18T09:34:53.552Z,97025.81
2018-01-18T09:37:21.859Z,97029.61
2018-01-18T09:39:50.204Z,97032.38
2018-01-18T09:42:19.248Z,97025.70
2018-01-18T09:44:47.555Z,97015.11
2018-01-18T09:47:16.521Z,97019.91
2018-01-18T09:49:44.844Z,97014.70
2018-01-18T09:52:13.147Z,97004.14
2018-01-18T09:54:41.496Z,96983.48
2018-01-18T09:57:09.797Z,96998.97
2018-01-18T09:59:38.711Z,96996.50
2018-01-18T10:02:07.615Z,96989.33
2018-01-18T10:04:35.915Z,96990.72
2018-01-18T10:07:04.232Z,96993.88
2018-01-18T10:09:32.582Z,96999.17
2018-01-18T10:12:00.920Z,96982.63
2018-01-18T10:14:29.230Z,96962.35
2018-01-18T10:16:58.247Z,96960.27
2018-01-18T10:19:26.732Z,96952.88
2018-01-18T10:21:55.465Z,96960.97
2018-01-18T10:24:24.764Z,96960.33
2018-01-18T10:26:53.711Z,96954.46
2018-01-18T10:29:22.952Z,96955.45
2018-01-18T10:31:51.494Z,96953.11
2018-01-18T10:34:20.125Z,96962.00
2018-01-18T10:36:48.440Z,96949.81
2018-01-18T10:39:17.748Z,96953.41
2018-01-18T10:41:46.081Z,96958.33
2018-01-18T10:44:14.375Z,96966.31
2018-01-18T10:46:43.516Z,96945.11
2018-01-18T10:49:11.840Z,96934.00
2018-01-18T10:51:41.970Z,96916.59
2018-01-18T10:54:10.623Z,96932.09
2018-01-18T10:56:38.927Z,96931.50
2018-01-18T10:59:07.445Z,96916.30
2018-01-18T11:01:35.807Z,96907.88
2018-01-18T11:04:04.113Z,96904.56
2018-01-18T11:06:32.415Z,96877.08
2018-01-18T11:09:01.923Z,96897.51
2018-01-18T11:11:30.219Z,96873.76
2018-01-18T11:13:58.604Z,96879.32
2018-01-18T11:16:26.939Z,96879.91
2018-01-18T11:18:55.243Z,96869.53
2018-01-18T11:21:24.260Z,96868.70
2018-01-18T11:23:53.377Z,96900.59
2018-01-18T11:26:21.680Z,96887.98
2018-01-18T11:28:49.974Z,96886.98
2018-01-18T11:31:18.880Z,96885.30
2018-01-18T11:33:47.188Z,96886.66
2018-01-18T11:36:15.599Z,96887.44
2018-01-18T11:38:44.555Z,96867.58
2018-01-18T11:41:13.024Z,96866.11
2018-01-18T11:43:41.323Z,96860.23
2018-01-18T11:46:09.692Z,96874.25
2018-01-18T11:48:38.300Z,96857.50
2018-01-18T11:51:06.834Z,96862.52
2018-01-18T11:53:35.131Z,96842.16
2018-01-18T11:56:04.108Z,96863.55
2018-01-18T11:58:32.548Z,96856.19
2018-01-18T12:01:01.351Z,96848.91
2018-01-18T12:03:29.832Z,96851.48
2018-01-18T12:05:58.294Z,96859.41
2018-01-18T12:08:26.693Z,96837.61
2018-01-18T12:10:54.960Z,96848.81
2018-01-18T12:13:23.319Z,96857.69
2018-01-18T12:15:51.627Z,96859.30
2018-01-18T12:18:20.371Z,96854.49
2018-01-18T12:20:49.124Z,96851.09
2018-01-18T12:23:17.939Z,96845.44
2018-01-18T12:25:47.008Z,96828.02
2018-01-18T12:28:16.119Z,96835.10
2018-01-18T12:30:45.188Z,96845.25
2018-01-18T12:33:13.481Z,96822.11
2018-01-18T12:35:42.576Z,96828.02
2018-01-18T12:38:11.827Z,96812.19
2018-01-18T12:40:40.320Z,96822.42
2018-01-18T12:43:08.959Z,96819.06
2018-01-18T12:45:37.291Z,96782.07
2018-01-18T12:48:05.638Z,96805.38
2018-01-18T12:50:33.943Z,96799.58
2018-01-18T12:53:02.768Z,96782.39
2018-01-18T12:55:31.240Z,96794.52
2018-01-18T12:58:00.304Z,96792.79
2018-01-18T13:00:28.610Z,96781.59
2018-01-18T13:02:58.101Z,96781.47
2018-01-18T13:05:26.399Z,96770.03
2018-01-18T13:07:55.463Z,96770.56
2018-01-18T13:10:23.984Z,96769.61
2018-01-18T13:12:52.288Z,96773.38
2018-01-18T13:15:20.597Z,96762.45
2018-01-18T13:17:48.944Z,96760.25
2018-01-18T13:20:17.760Z,96762.67
2018-01-18T13:22:46.072Z,96780.12
2018-01-18T13:25:14.375Z,96756.38
2018-01-18T13:27:43.443Z,96754.02
2018-01-18T13:30:11.751Z,96758.32
2018-01-18T13:32:40.043Z,96763.57
2018-01-18T13:35:08.640Z,96784.96
2018-01-18T13:37:37.716Z,96766.41
2018-01-18T13:40:07.028Z,96767.58
2018-01-18T13:42:35.383Z,96779.34
2018-01-18T13:45:03.971Z,96794.20
2018-01-18T13:47:32.683Z,96760.80
2018-01-18T13:50:01.219Z,96775.05
2018-01-18T13:52:29.696Z,96761.68
2018-01-18T13:54:58.005Z,96752.53
2018-01-18T13:57:26.343Z,96782.86
2018-01-18T13:59:55.414Z,96778.75
2018-01-18T14:02:24.822Z,96774.62
2018-01-18T14:04:53.544Z,96769.93
2018-01-18T14:07:22.284Z,96764.25
2018-01-18T14:09:51.076Z,96769.44
2018-01-18T14:12:20.442Z,96762.41
2018-01-18T14:14:48.779Z,96763.15
2018-01-18T14:17:17.964Z,96765.33
2018-01-18T14:19:46.269Z,96770.84
2018-01-18T14:22:14.574Z,96776.46
2018-01-18T14:24:43.380Z,96773.92
2018-01-18T14:27:11.675Z,96777.78
2018-01-18T14:29:39.988Z,96782.97
2018-01-18T14:32:09.109Z,96786.73
2018-01-18T14:34:37.591Z,96794.81
2018-01-18T14:37:05.924Z,96799.27
2018-01-18T14:39:34.618Z,96797.15
2018-01-18T14:42:02.940Z,96803.33
2018-01-18T14:44:31.697Z,96803.81
2018-01-18T14:47:00.143Z,96813.19
2018-01-18T14:49:30.064Z,96836.41
2018-01-18T14:51:58.898Z,96836.46
2018-01-18T14:54:27.880Z,96848.89
2018-01-18T14:56:56.323Z,96853.33
2018-01-18T14:59:24.635Z,96864.95
2018-01-18T15:01:52.940Z,96871.72
2018-01-18T15:04:23.271Z,96881.41
2018-01-18T15:06:51.611Z,96890.27
2018-01-18T15:09:19.927Z,96892.13
2018-01-18T15:11:52.204Z,96888.23
2018-01-18T15:14:20.643Z,96896.73
2018-01-18T15:16:48.951Z,96901.02
2018-01-18T15:19:17.912Z,96901.80
2018-01-18T15:21:46.492Z,96908.50
2018-01-18T15:24:15.175Z,96916.70
2018-01-18T15:26:43.504Z,96907.72
2018-01-18T15:29:12.071Z,96904.41
2018-01-18T15:31:40.396Z,96898.58
2018-01-18T15:34:09.527Z,96901.78
2018-01-18T15:36:37.879Z,96883.28
2018-01-18T15:39:06.196Z,96874.21
2018-01-18T15:41:34.499Z,96879.97
2018-01-18T15:44:03.004Z,96870.14
2018-01-18T15:46:31.488Z,96887.67
2018-01-18T15:48:59.797Z,96898.95
2018-01-18T15:51:28.631Z,96896.42
2018-01-18T15:53:56.936Z,96878.61
2018-01-18T15:56:25.231Z,96878.11
2018-01-18T15:58:53.722Z,96890.20
2018-01-18T16:01:22.050Z,96905.89
2018-01-18T16:03:50.348Z,96908.80
2018-01-18T16:06:18.696Z,96924.67
2018-01-18T16:08:47.071Z,96925.84
2018-01-18T16:11:15.687Z,96931.29
2018-01-18T16:13:44.033Z,96927.88
2018-01-18T16:16:12.343Z,96935.16
2018-01-18T16:18:40.652Z,96929.33
2018-01-18T16:21:09.396Z,96923.95
2018-01-18T16:23:38.112Z,96944.97
2018-01-18T16:26:06.415Z,96937.30
2018-01-18T16:28:34.768Z,96928.52
2018-01-18T16:31:03.539Z,96942.64
2018-01-18T16:33:32.085Z,96947.71
2018-01-18T16:36:00.396Z,96962.13
2018-01-18T16:38:29.288Z,96971.83
2018-01-18T16:40:57.658Z,96980.12
2018-01-18T16:43:26.556Z,96987.50
2018-01-18T16:45:54.864Z,96999.94
2018-01-18T16:48:23.187Z,96991.96
2018-01-18T16:50:52.307Z,96997.52
2018-01-18T16:53:20.608Z,96996.64
2018-01-18T16:55:48.939Z,97002.69
2018-01-18T16:58:17.429Z,96993.53
2018-01-18T17:00:47.436Z,96973.84
2018-01-18T17:03:15.980Z,96961.14
2018-01-18T17:05:45.245Z,96972.15
2018-01-18T17:08:13.545Z,96957.56
2018-01-18T17:10:41.875Z,96972.63
2018-01-18T17:13:10.199Z,96992.02
2018-01-18T17:15:38.499Z,97002.13
2018-01-18T17:18:07.026Z,97010.10
2018-01-18T17:20:35.779Z,97002.02
2018-01-18T17:23:04.096Z,96984.87
2018-01-18T17:25:32.436Z,96991.89
2018-01-18T17:28:00.888Z,96983.91
2018-01-18T17:30:29.192Z,96987.67
2018-01-18T17:32:58.795Z,96974.90
2018-01-18T17:35:27.211Z,96969.02
2018-01-18T17:37:55.607Z,96955.59
2018-01-18T17:40:25.127Z,96964.16
2018-01-18T17:42:53.967Z,96982.05
2018-01-18T17:45:22.635Z,96964.05
2018-01-18T17:47:51.820Z,96965.22
2018-01-18T17:50:20.647Z,96969.22
2018-01-18T17:52:48.951Z,96968.73
2018-01-18T17:55:18.148Z,96961.13
2018-01-18T17:57:47.355Z,96974.43
2018-01-18T18:00:15.711Z,97009.48
2018-01-18T18:02:44.075Z,97053.92
2018-01-18T18:05:13.303Z,97060.11
2018-01-18T18:07:43.300Z,97087.67
2018-01-18T18:10:11.976Z,97082.16
2018-01-18T18:12:40.846Z,97090.56
2018-01-18T18:15:09.224Z,97080.03
2018-01-18T18:17:37.555Z,97064.85
2018-01-18T18:20:05.855Z,97069.70
2018-01-18T18:22:34.682Z,97075.47
2018-01-18T18:25:03.022Z,97086.02
2018-01-18T18:27:32.092Z,97097.69
2018-01-18T18:30:01.495Z,97103.05
2018-01-18T18:32:29.793Z,97117.23
2018-01-18T18:34:58.871Z,97130.73
2018-01-18T18:37:27.406Z,97108.59
2018-01-18T18:39:55.708Z,97119.47
2018-01-18T18:42:24.718Z,97132.41
2018-01-18T18:44:53.647Z,97128.16
2018-01-18T18:47:22.083Z,97130.31
2018-01-18T18:49:50.465Z,97130.25
2018-01-18T18:52:18.774Z,97130.52
2018-01-18T18:54:48.443Z,97114.04
2018-01-18T18:57:16.879Z,97103.84
2018-01-18T18:59:45.183Z,97072.22
2018-01-18T19:02:14.091Z,97098.77
2018-01-18T19:04:42.498Z,97097.23
2018-01-18T19:07:10.806Z,97089.91
2018-01-18T19:09:39.146Z,97106.32
2018-01-18T19:12:09.556Z,97097.84
2018-01-18T19:14:38.396Z,97103.44
2018-01-18T19:17:07.528Z,97097.16
2018-01-18T19:19:35.966Z,97103.44
2018-01-18T19:22:04.280Z,97105.48
2018-01-18T19:24:33.077Z,97115.86
2018-01-18T19:27:01.794Z,97111.11
2018-01-18T19:29:30.220Z,97110.00
2018-01-18T19:31:58.531Z,97108.03
2018-01-18T19:34:26.910Z,97118.67
2018-01-18T19:36:55.424Z,97116.78
2018-01-18T19:39:24.113Z,97117.72
2018-01-18T19:41:52.509Z,97112.25
2018-01-18T19:44:21.071Z,97105.64
2018-01-18T19:46:49.390Z,97106.80
2018-01-18T19:49:17.727Z,97099.64
2018-01-18T19:51:46.027Z,97106.37
2018-01-18T19:54:14.323Z,97112.98
2018-01-18T19:56:42.726Z,97101.04
2018-01-18T19:59:11.083Z,97112.30
2018-01-18T20:01:40.138Z,97113.17
2018-01-18T20:04:09.062Z,97117.56
2018-01-18T20:06:37.429Z,97110.55
2018-01-18T20:09:05.798Z,97112.91
2018-01-18T20:11:35.082Z,97111.16
2018-01-18T20:14:04.764Z,97103.69
2018-01-18T20:16:33.134Z,97107.73
2018-01-18T20:19:01.572Z,97113.55
2018-01-18T20:21:30.678Z,97118.63
2018-01-18T20:23:58.985Z,97103.47
2018-01-18T20:26:27.335Z,97090.66
2018-01-18T20:28:56.464Z,97106.08
2018-01-18T20:31:25.067Z,97097.77
2018-01-18T20:33:53.492Z,97100.87
2018-01-18T20:36:21.795Z,97103.95
2018-01-18T20:38:50.096Z,97099.42
2018-01-18T20:41:18.488Z,97114.16
2018-01-18T20:43:48.231Z,97114.27
2018-01-18T20:46:16.569Z,97120.13
2018-01-18T20:48:45.520Z,97123.48
2018-01-18T20:51:13.923Z,97118.92
2018-01-18T20:53:42.819Z,97120.25
2018-01-18T20:56:11.157Z,97124.91
2018-01-18T20:58:39.570Z,97125.00
2018-01-18T21:01:08.523Z,97137.87
2018-01-18T21:03:36.832Z,97128.78
2018-01-18T21:06:05.208Z,97125.58
2018-01-18T21:08:33.584Z,97118.69
2018-01-18T21:11:01.942Z,97111.59
2018-01-18T21:13:31.360Z,97107.89
2018-01-18T21:16:01.416Z,97099.99
2018-01-18T21:18:30.427Z,97110.96
2018-01-18T21:20:58.728Z,97100.81
2018-01-18T21:23:27.038Z,97118.73
2018-01-18T21:25:55.500Z,97134.52
2018-01-18T21:28:23.915Z,97076.17
2018-01-18T21:30:52.894Z,97098.28
2018-01-18T21:33:22.377Z,97122.13
2018-01-18T21:35:51.045Z,97113.63
2018-01-18T21:38:19.418Z,97096.48
2018-01-18T21:40:48.426Z,97086.20
2018-01-18T21:43:16.834Z,97071.57
2018-01-18T21:45:46.341Z,97081.83
2018-01-18T21:48:14.923Z,97087.75
2018-01-18T21:50:44.655Z,97081.14
2018-01-18T21:53:14.535Z,97071.19
2018-01-18T21:55:42.846Z,97086.71
2018-01-18T21:58:11.731Z,97086.88
2018-01-18T22:00:40.538Z,97079.01
2018-01-18T22:03:10.378Z,97063.26
2018-01-18T22:05:38.694Z,97043.33
2018-01-18T22:08:06.991Z,97056.66
2018-01-18T22:10:35.406Z,97072.54
2018-01-18T22:13:03.704Z,97089.78
2018-01-18T22:15:32.049Z,97112.75
2018-01-18T22:18:00.375Z,97121.95
2018-01-18T22:20:28.671Z,97108.84
2018-01-18T22:22:56.987Z,97104.55
2018-01-18T22:25:25.348Z,97086.78
2018-01-18T22:27:54.436Z,97101.92
2018-01-18T22:30:22.739Z,97099.62
2018-01-18T22:32:51.859Z,97092.50
2018-01-18T22:35:20.172Z,97098.38
2018-01-18T22:37:48.470Z,97093.41
2018-01-18T22:40:16.819Z,97087.36
2018-01-18T22:42:47.427Z,97076.97
2018-01-18T22:45:15.728Z,97075.06
2018-01-18T22:47:44.099Z,97068.66
2018-01-18T22:50:12.406Z,97073.45
2018-01-18T22:52:40.699Z,97072.89
2018-01-18T22:55:09.800Z,97067.78
2018-01-18T22:57:38.859Z,97063.16
2018-01-18T23:00:07.159Z,97062.25
2018-01-18T23:02:35.507Z,97058.47
2018-01-18T23:05:03.823Z,97058.98
2018-01-18T23:07:32.138Z,97066.17
2018-01-18T23:10:00.484Z,97070.44
2018-01-18T23:12:29.554Z,97067.47
2018-01-18T23:14:57.851Z,97066.55
2018-01-18T23:17:26.975Z,97073.80
2018-01-18T23:19:55.268Z,97076.97
2018-01-18T23:22:24.041Z,97067.45
2018-01-18T23:24:52.440Z,97060.79
2018-01-18T23:27:20.731Z,97059.02
2018-01-18T23:29:49.044Z,97046.08
2018-01-18T23:32:17.404Z,97043.14
2018-01-18T23:34:46.114Z,97036.70
2018-01-18T23:37:14.912Z,97040.89
2018-01-18T23:39:45.023Z,97049.19
2018-01-18T23:42:13.366Z,97044.98
2018-01-18T23:44:41.672Z,97050.98
2018-01-18T23:47:10.797Z,97051.17
2018-01-18T23:49:39.107Z,97058.86
2018-01-18T23:52:07.424Z,97056.28
2018-01-18T23:54:35.747Z,97043.94
2018-01-18T23:57:04.820Z,97035.41
2018-01-18T23:59:33.771Z,97042.02
